Time;durP1;ratioP1;P1;durP2;ratioP2;P2;SDS_P1;SDS_P2;PMS_P1;PMS_P2;Temp;Humidity;BMP_temperature;BMP_pressure;BME280_temperature;BME280_humidity;BME280_pressure;Samples;Min_cycle;Max_cycle;Signal;HPM_P1;HPM_P2
2020/12/31 00:02:14;;;;;;;0.20;0.20;;;2.90;99.90;;;;;;5023613;28;20416;-78
2020/12/31 00:04:41;;;;;;;0.68;0.68;;;3.00;99.90;;;;;;5036238;28;20025;-79
2020/12/31 00:07:07;;;;;;;0.15;0.15;;;3.00;99.90;;;;;;5039373;28;20156;-78
2020/12/31 00:09:35;;;;;;;0.00;0.00;;;3.00;99.90;;;;;;5040817;28;20034;-77
2020/12/31 00:12:01;;;;;;;0.17;0.17;;;3.00;99.90;;;;;;5024400;28;20045;-77
2020/12/31 00:14:26;;;;;;;1.88;1.02;;;3.10;99.90;;;;;;5024552;28;20179;-78
2020/12/31 00:16:52;;;;;;;1.70;0.60;;;3.10;99.90;;;;;;5014233;28;20038;-77
2020/12/31 00:19:18;;;;;;;0.10;0.10;;;3.10;99.90;;;;;;5015671;28;20401;-78
2020/12/31 00:21:43;;;;;;;0.33;0.33;;;3.00;99.90;;;;;;5012540;28;20044;-78
2020/12/31 00:24:09;;;;;;;0.10;0.10;;;3.10;99.90;;;;;;5028449;28;20315;-78
2020/12/31 00:26:35;;;;;;;0.17;0.17;;;3.00;99.90;;;;;;5013262;28;20030;-78
2020/12/31 00:29:00;;;;;;;0.20;0.20;;;3.00;99.90;;;;;;5019089;28;20073;-77
2020/12/31 00:31:26;;;;;;;0.27;0.27;;;3.00;99.90;;;;;;5022157;28;20032;-78
2020/12/31 00:33:52;;;;;;;0.20;0.20;;;2.90;99.90;;;;;;5013827;28;20026;-78
2020/12/31 00:36:18;;;;;;;0.30;0.30;;;2.90;99.90;;;;;;5013669;28;20030;-78
2020/12/31 00:38:44;;;;;;;0.20;0.20;;;2.90;99.90;;;;;;5027082;28;20057;-78
2020/12/31 00:41:09;;;;;;;0.30;0.28;;;2.90;99.90;;;;;;5030656;28;20022;-77
2020/12/31 00:43:35;;;;;;;2.87;1.10;;;2.80;99.90;;;;;;5014446;28;20339;-79
2020/12/31 00:46:01;;;;;;;0.40;0.40;;;2.80;99.90;;;;;;5029903;28;20409;-78
2020/12/31 00:48:27;;;;;;;0.32;0.32;;;2.80;99.90;;;;;;5015124;28;20033;-78
2020/12/31 00:50:52;;;;;;;0.30;0.30;;;2.80;99.90;;;;;;5013842;28;20091;-77
2020/12/31 00:53:18;;;;;;;0.13;0.13;;;2.80;99.90;;;;;;5013885;28;20038;-78
2020/12/31 00:55:44;;;;;;;0.40;0.40;;;2.80;99.90;;;;;;5007965;28;20029;-78
2020/12/31 00:58:10;;;;;;;0.80;0.50;;;2.80;99.90;;;;;;5013429;28;20064;-78
2020/12/31 01:00:36;;;;;;;0.60;0.60;;;2.80;99.90;;;;;;5003485;28;20029;-78
2020/12/31 01:03:04;;;;;;;0.82;0.82;;;2.70;99.90;;;;;;5007616;28;20037;-78
2020/12/31 01:05:30;;;;;;;0.40;0.40;;;2.70;99.90;;;;;;5023574;28;20026;-79
2020/12/31 01:07:55;;;;;;;1.42;1.08;;;2.70;99.90;;;;;;5020248;28;20041;-78
2020/12/31 01:10:21;;;;;;;2.50;1.02;;;2.70;99.90;;;;;;5030785;28;20029;-79
2020/12/31 01:12:47;;;;;;;0.60;0.47;;;2.70;99.90;;;;;;5024916;28;20101;-77
2020/12/31 01:15:12;;;;;;;0.43;0.43;;;2.60;99.90;;;;;;5027223;28;20452;-78
2020/12/31 01:17:38;;;;;;;0.88;0.50;;;2.60;99.90;;;;;;5044564;28;20289;-78
2020/12/31 01:20:05;;;;;;;0.80;0.80;;;2.60;99.90;;;;;;5022193;28;20014;-78
2020/12/31 01:22:30;;;;;;;0.30;0.25;;;2.60;99.90;;;;;;5038817;28;20025;-78
2020/12/31 01:24:56;;;;;;;0.83;0.53;;;2.60;99.90;;;;;;5039465;28;20373;-78
2020/12/31 01:27:22;;;;;;;1.43;0.43;;;2.60;99.90;;;;;;5024196;28;20017;-78
2020/12/31 01:29:47;;;;;;;0.33;0.33;;;2.70;99.90;;;;;;5017062;28;20026;-78
2020/12/31 01:32:13;;;;;;;0.93;0.40;;;2.60;99.90;;;;;;5030132;28;20034;-78
2020/12/31 01:34:39;;;;;;;0.27;0.27;;;2.60;99.90;;;;;;5035468;28;20029;-78
2020/12/31 01:37:05;;;;;;;1.05;0.98;;;2.70;99.90;;;;;;5042159;28;20033;-77
2020/12/31 01:39:30;;;;;;;0.75;0.75;;;2.70;99.90;;;;;;5024112;28;20052;-78
2020/12/31 01:42:03;;;;;;;0.67;0.30;;;2.70;99.90;;;;;;5020681;28;20433;-77
2020/12/31 01:44:29;;;;;;;1.08;1.08;;;2.70;99.90;;;;;;5012877;28;20022;-77
2020/12/31 01:47:00;;;;;;;1.65;0.85;;;2.70;99.90;;;;;;5025413;28;20357;-78
2020/12/31 01:49:32;;;;;;;3.25;1.10;;;2.70;99.90;;;;;;5019593;28;20108;-78
2020/12/31 01:51:59;;;;;;;1.33;1.25;;;2.70;99.90;;;;;;5011451;28;20435;-77
2020/12/31 01:54:26;;;;;;;3.25;1.33;;;2.70;99.90;;;;;;5025017;28;20058;-78
2020/12/31 01:56:55;;;;;;;0.50;0.50;;;2.80;99.90;;;;;;5010288;28;20034;-78
2020/12/31 01:59:21;;;;;;;1.10;1.10;;;2.80;99.90;;;;;;5007093;28;20284;-76
2020/12/31 02:01:47;;;;;;;0.43;0.43;;;2.80;99.90;;;;;;5022053;28;20105;-77
2020/12/31 02:04:14;;;;;;;2.30;1.42;;;2.80;99.90;;;;;;5043941;28;20390;-78
2020/12/31 02:06:40;;;;;;;0.28;0.28;;;2.80;99.90;;;;;;5029210;28;20026;-79
2020/12/31 02:09:05;;;;;;;2.10;1.83;;;2.80;99.90;;;;;;5026818;28;20034;-77
2020/12/31 02:11:31;;;;;;;1.50;0.87;;;2.80;99.90;;;;;;5029082;28;20120;-78
2020/12/31 02:13:58;;;;;;;1.87;1.20;;;2.80;99.90;;;;;;5012061;28;20069;-78
2020/12/31 02:16:26;;;;;;;0.52;0.52;;;2.80;99.90;;;;;;5032097;28;20496;-77
2020/12/31 02:19:02;;;;;;;5.40;1.00;;;2.80;99.90;;;;;;5037385;28;20068;-79
2020/12/31 02:21:32;;;;;;;2.05;1.35;;;2.80;99.90;;;;;;5011982;28;20033;-77
2020/12/31 02:24:00;;;;;;;3.55;2.05;;;2.70;99.90;;;;;;5003298;28;20018;-78
2020/12/31 02:26:29;;;;;;;0.40;0.40;;;2.70;99.90;;;;;;5014028;28;20308;-77
2020/12/31 02:28:55;;;;;;;2.00;1.52;;;2.70;99.90;;;;;;5006516;28;20080;-78
2020/12/31 02:31:22;;;;;;;2.38;2.17;;;2.60;99.90;;;;;;5009569;28;20081;-78
2020/12/31 02:33:49;;;;;;;;;;;2.60;99.90;;;;;;5008988;28;20052;-78
2020/12/31 02:36:16;;;;;;;1.50;1.17;;;2.60;99.90;;;;;;5028085;28;19905;-78
2020/12/31 02:38:43;;;;;;;1.45;1.35;;;2.60;99.90;;;;;;5027627;28;20046;-78
2020/12/31 02:41:09;;;;;;;1.15;1.15;;;2.50;99.90;;;;;;5039899;28;20091;-78
2020/12/31 02:43:36;;;;;;;1.65;1.25;;;2.50;99.90;;;;;;5014698;28;20353;-77
2020/12/31 02:46:07;;;;;;;2.28;1.55;;;2.50;99.90;;;;;;5016541;28;20025;-79
2020/12/31 02:48:33;;;;;;;3.42;2.03;;;2.50;99.90;;;;;;5018567;28;20408;-77
2020/12/31 02:50:58;;;;;;;2.30;2.10;;;2.50;99.90;;;;;;5016780;28;20029;-78
2020/12/31 02:53:24;;;;;;;0.73;0.73;;;2.60;99.90;;;;;;5015246;28;20022;-78
2020/12/31 02:55:50;;;;;;;12.90;2.03;;;2.60;99.90;;;;;;5036648;28;20026;-78
2020/12/31 02:58:16;;;;;;;2.20;1.83;;;2.60;99.90;;;;;;5034067;28;20421;-78
2020/12/31 03:00:42;;;;;;;4.68;1.73;;;2.60;99.90;;;;;;5032908;28;20029;-78
2020/12/31 03:03:08;;;;;;;0.98;0.98;;;2.60;99.90;;;;;;5015555;28;20064;-78
2020/12/31 03:05:34;;;;;;;1.70;1.60;;;2.60;99.90;;;;;;5021563;28;20057;-77
2020/12/31 03:07:59;;;;;;;2.13;1.97;;;2.70;99.90;;;;;;5029277;28;20306;-78
2020/12/31 03:10:25;;;;;;;20.40;2.07;;;2.70;99.90;;;;;;5016215;28;20056;-78
2020/12/31 03:12:51;;;;;;;0.90;0.90;;;2.70;99.90;;;;;;5028437;28;20087;-78
2020/12/31 03:15:19;;;;;;;2.37;2.07;;;2.80;99.90;;;;;;5039623;28;20044;-77
2020/12/31 03:17:45;;;;;;;3.75;2.15;;;2.80;99.90;;;;;;5029994;28;20319;-78
2020/12/31 03:20:10;;;;;;;0.80;0.75;;;2.80;99.90;;;;;;5032532;28;20051;-78
2020/12/31 03:22:36;;;;;;;1.53;1.43;;;2.80;99.90;;;;;;5028518;28;20316;-78
2020/12/31 03:25:03;;;;;;;3.83;2.17;;;2.80;99.90;;;;;;5020267;28;20413;-79
2020/12/31 03:27:29;;;;;;;;;;;2.80;99.90;;;;;;5019402;28;20023;-77
2020/12/31 03:29:55;;;;;;;3.75;2.05;;;2.80;99.90;;;;;;5015856;28;19914;-77
2020/12/31 03:32:21;;;;;;;5.07;3.23;;;2.80;99.90;;;;;;5014372;28;20167;-78
2020/12/31 03:34:46;;;;;;;5.87;1.27;;;2.80;99.90;;;;;;5010332;28;20061;-78
2020/12/31 03:37:12;;;;;;;4.78;2.83;;;2.80;99.90;;;;;;5016207;28;20045;-79
2020/12/31 03:39:38;;;;;;;2.07;1.87;;;2.90;99.90;;;;;;5027086;28;20073;-78
2020/12/31 03:42:04;;;;;;;5.87;2.70;;;2.80;99.90;;;;;;5028700;28;20033;-79
2020/12/31 03:44:31;;;;;;;2.30;1.48;;;2.80;99.90;;;;;;5010325;28;20026;-78
2020/12/31 03:46:56;;;;;;;3.23;1.53;;;2.80;99.90;;;;;;5030799;28;20104;-78
2020/12/31 03:49:22;;;;;;;2.60;1.97;;;2.80;99.90;;;;;;5018369;28;20689;-78
2020/12/31 03:51:48;;;;;;;2.63;2.43;;;2.80;99.90;;;;;;5016118;28;20022;-78
2020/12/31 03:54:14;;;;;;;2.20;2.00;;;2.90;99.90;;;;;;5013487;28;20188;-78
2020/12/31 03:56:39;;;;;;;3.13;2.13;;;2.90;99.90;;;;;;5017803;28;20029;-79
2020/12/31 03:59:05;;;;;;;3.00;2.47;;;2.80;99.90;;;;;;5027005;28;20037;-78
2020/12/31 04:01:32;;;;;;;1.53;1.43;;;2.80;99.90;;;;;;5018985;28;20058;-79
2020/12/31 04:03:58;;;;;;;;;;;2.80;99.90;;;;;;5015152;28;20028;-78
2020/12/31 04:06:24;;;;;;;1.40;1.23;;;2.90;99.90;;;;;;5031446;28;19932;-78
2020/12/31 04:08:49;;;;;;;2.80;1.77;;;2.80;99.90;;;;;;5022960;28;20341;-78
2020/12/31 04:11:15;;;;;;;7.68;2.50;;;2.80;99.90;;;;;;5017230;28;20030;-78
2020/12/31 04:13:41;;;;;;;1.23;1.20;;;2.80;99.90;;;;;;5033030;28;20061;-78
2020/12/31 04:16:06;;;;;;;1.60;1.27;;;2.80;99.90;;;;;;5015182;28;20036;-77
2020/12/31 04:18:32;;;;;;;10.47;2.63;;;2.80;99.90;;;;;;5012267;28;20018;-78
2020/12/31 04:20:58;;;;;;;6.75;2.88;;;2.80;99.90;;;;;;5015102;28;20121;-78
2020/12/31 04:23:24;;;;;;;2.97;2.33;;;2.80;99.90;;;;;;5014426;28;20072;-78
2020/12/31 04:25:50;;;;;;;5.95;2.92;;;2.80;99.90;;;;;;5014630;28;20026;-78
2020/12/31 04:28:16;;;;;;;3.40;2.00;;;2.80;99.90;;;;;;5015294;28;20034;-78
2020/12/31 04:30:45;;;;;;;5.87;2.30;;;2.80;99.90;;;;;;5018321;28;20100;-78
2020/12/31 04:33:11;;;;;;;3.50;1.38;;;2.80;99.90;;;;;;5025466;28;20099;-78
2020/12/31 04:35:37;;;;;;;5.55;2.40;;;2.80;99.90;;;;;;5006507;28;20034;-79
2020/12/31 04:38:02;;;;;;;2.33;1.67;;;2.70;99.90;;;;;;5009490;28;20046;-78
2020/12/31 04:40:28;;;;;;;3.33;2.33;;;2.70;99.90;;;;;;5007025;28;20034;-79
2020/12/31 04:42:54;;;;;;;3.30;1.90;;;2.70;99.90;;;;;;5028419;28;20030;-77
2020/12/31 04:45:21;;;;;;;1.33;1.23;;;2.70;99.90;;;;;;5010992;28;20033;-78
2020/12/31 04:48:09;;;;;;;1.10;1.00;;;2.60;99.90;;;;;;5017833;28;20036;-79
2020/12/31 04:50:39;;;;;;;1.50;1.35;;;2.60;99.90;;;;;;5011537;28;20095;-78
2020/12/31 04:53:10;;;;;;;2.25;2.05;;;2.60;99.90;;;;;;5029611;28;20018;-78
2020/12/31 04:55:44;;;;;;;1.38;1.23;;;2.60;99.90;;;;;;5032985;28;20022;-78
2020/12/31 04:58:11;;;;;;;1.67;1.58;;;2.50;99.90;;;;;;5031745;28;20092;-78
2020/12/31 05:00:39;;;;;;;2.22;1.10;;;2.50;99.90;;;;;;5014158;28;20029;-79
2020/12/31 05:03:07;;;;;;;2.30;2.10;;;2.60;99.90;;;;;;5024468;28;20022;-78
2020/12/31 05:05:34;;;;;;;1.65;1.35;;;2.50;99.90;;;;;;5047245;28;20022;-79
2020/12/31 05:08:01;;;;;;;3.17;1.35;;;2.50;99.90;;;;;;5028231;28;20030;-78
2020/12/31 05:10:28;;;;;;;3.30;1.67;;;2.60;99.90;;;;;;5025222;28;20025;-78
2020/12/31 05:13:02;;;;;;;3.53;1.05;;;2.60;99.90;;;;;;5027021;28;20091;-79
2020/12/31 05:15:42;;;;;;;3.50;1.73;;;2.50;99.90;;;;;;5042544;28;20057;-79
2020/12/31 05:18:25;;;;;;;6.45;2.00;;;2.50;99.90;;;;;;5042373;28;20318;-79
2020/12/31 05:20:53;;;;;;;0.95;0.95;;;2.50;99.90;;;;;;5019329;28;20119;-79
2020/12/31 05:23:23;;;;;;;1.65;1.27;;;2.40;99.90;;;;;;5020296;28;20697;-79
2020/12/31 05:25:49;;;;;;;3.53;1.50;;;2.40;99.90;;;;;;5043883;28;20021;-78
2020/12/31 05:28:26;;;;;;;3.33;0.85;;;2.40;99.90;;;;;;5022493;28;20032;-79
2020/12/31 05:30:57;;;;;;;9.80;1.92;;;2.30;99.90;;;;;;5030775;28;20040;-79
2020/12/31 05:33:32;;;;;;;2.55;1.85;;;2.30;99.90;;;;;;5041677;28;20029;-78
2020/12/31 05:36:21;;;;;;;2.72;1.55;;;2.30;99.90;;;;;;5038543;28;20036;-78
2020/12/31 05:39:02;;;;;;;1.35;1.25;;;2.20;99.90;;;;;;5023629;28;20038;-79
2020/12/31 05:41:30;;;;;;;0.65;0.65;;;2.20;99.90;;;;;;5011119;28;20026;-77
2020/12/31 05:44:04;;;;;;;0.30;0.30;;;2.20;99.90;;;;;;5028743;28;20108;-77
2020/12/31 05:46:29;;;;;;;0.47;0.47;;;2.10;99.90;;;;;;5015581;28;20022;-78
2020/12/31 05:49:02;;;;;;;0.82;0.68;;;2.10;99.90;;;;;;5034338;28;20025;-78
2020/12/31 05:51:30;;;;;;;0.60;0.55;;;2.00;99.90;;;;;;5028101;28;20104;-79
2020/12/31 05:54:08;;;;;;;0.28;0.28;;;2.00;99.90;;;;;;5026208;28;20030;-78
2020/12/31 05:56:36;;;;;;;1.30;1.08;;;2.00;99.90;;;;;;5032718;28;20034;-79
2020/12/31 05:59:06;;;;;;;1.17;1.08;;;2.00;99.90;;;;;;5011963;28;20034;-79
2020/12/31 06:01:35;;;;;;;0.80;0.80;;;2.00;99.90;;;;;;5013132;28;20101;-78
2020/12/31 06:04:17;;;;;;;1.80;0.80;;;2.00;99.90;;;;;;5037248;28;20373;-78
2020/12/31 06:06:57;;;;;;;0.68;0.68;;;2.00;99.90;;;;;;5010698;28;20309;-78
2020/12/31 06:09:32;;;;;;;0.73;0.73;;;2.00;99.90;;;;;;5029842;28;20105;-78
2020/12/31 06:12:05;;;;;;;1.02;1.02;;;2.00;99.90;;;;;;5013903;28;20385;-79
2020/12/31 06:14:32;;;;;;;0.90;0.85;;;1.90;99.90;;;;;;5035446;28;20038;-78
2020/12/31 06:16:59;;;;;;;;;;;1.90;99.90;;;;;;5018561;28;20030;-79
2020/12/31 06:19:40;;;;;;;0.50;0.50;;;1.90;99.90;;;;;;5024280;28;19948;-78
2020/12/31 06:22:11;;;;;;;22.73;1.40;;;1.90;99.90;;;;;;5032673;28;20038;-78
2020/12/31 06:24:39;;;;;;;7.10;1.73;;;1.90;99.90;;;;;;5013468;28;20022;-78
2020/12/31 06:27:10;;;;;;;0.52;0.52;;;1.90;99.90;;;;;;5019221;28;20029;-78
2020/12/31 06:29:42;;;;;;;2.38;1.83;;;1.90;99.90;;;;;;5009283;28;20413;-78
2020/12/31 06:32:39;;;;;;;4.10;1.25;;;1.90;99.90;;;;;;5024799;28;20029;-78
2020/12/31 06:35:11;;;;;;;0.95;0.95;;;1.90;99.90;;;;;;5037031;28;20336;-78
2020/12/31 06:37:37;;;;;;;1.15;0.88;;;1.90;99.90;;;;;;5019335;28;20026;-79
2020/12/31 06:40:22;;;;;;;3.50;0.77;;;1.90;99.90;;;;;;5016132;28;20018;-77
2020/12/31 06:43:16;;;;;;;10.77;0.77;;;1.90;99.90;;;;;;5009464;28;20014;-78
2020/12/31 06:45:47;;;;;;;0.98;0.98;;;1.90;99.90;;;;;;5028097;28;20029;-78
2020/12/31 06:48:27;;;;;;;3.60;2.03;;;1.90;99.90;;;;;;5017660;28;20029;-78
2020/12/31 06:51:06;;;;;;;1.75;0.60;;;1.90;99.90;;;;;;5024967;28;20057;-78
2020/12/31 06:53:33;;;;;;;1.75;1.58;;;1.90;99.90;;;;;;5022613;28;20044;-78
2020/12/31 06:56:05;;;;;;;2.78;1.10;;;1.90;99.90;;;;;;5011448;28;20033;-78
2020/12/31 06:58:32;;;;;;;0.82;0.82;;;1.90;99.90;;;;;;5019088;28;20029;-78
2020/12/31 07:00:58;;;;;;;0.85;0.63;;;1.80;99.90;;;;;;5027639;28;20036;-78
2020/12/31 07:03:42;;;;;;;1.42;0.77;;;1.80;99.90;;;;;;5027571;28;20108;-78
2020/12/31 07:06:23;;;;;;;0.73;0.68;;;1.80;99.90;;;;;;5023238;28;20053;-78
2020/12/31 07:09:03;;;;;;;0.80;0.80;;;1.80;99.90;;;;;;5039706;28;20033;-78
2020/12/31 07:11:34;;;;;;;1.88;1.77;;;1.80;99.90;;;;;;5031736;28;20026;-78
2020/12/31 07:14:02;;;;;;;0.70;0.70;;;1.90;99.90;;;;;;5035453;28;20022;-78
2020/12/31 07:16:37;;;;;;;9.93;0.85;;;1.90;99.90;;;;;;5017381;28;20033;-78
2020/12/31 07:19:03;;;;;;;7.20;1.38;;;1.90;99.90;;;;;;5021072;28;20116;-78
2020/12/31 07:21:30;;;;;;;2.25;1.17;;;2.00;99.90;;;;;;5024296;28;20100;-78
2020/12/31 07:23:56;;;;;;;1.05;0.98;;;2.00;99.90;;;;;;5014553;28;20109;-78
2020/12/31 07:26:26;;;;;;;1.27;1.17;;;2.00;99.90;;;;;;5045848;28;20029;-78
2020/12/31 07:28:52;;;;;;;4.75;2.30;;;2.00;99.90;;;;;;5022788;28;20418;-79
2020/12/31 07:31:40;;;;;;;1.27;0.95;;;2.00;99.90;;;;;;5032160;28;20045;-78
2020/12/31 07:34:25;;;;;;;0.88;0.65;;;2.10;99.90;;;;;;5008475;28;20049;-79
2020/12/31 07:36:58;;;;;;;1.25;1.15;;;2.10;99.90;;;;;;5031040;28;20439;-79
2020/12/31 07:39:24;;;;;;;0.88;0.88;;;2.20;99.90;;;;;;5024262;28;20045;-80
2020/12/31 07:41:49;;;;;;;2.70;1.07;;;2.20;99.90;;;;;;5043803;28;20295;-80
2020/12/31 07:44:15;;;;;;;1.67;1.57;;;2.20;99.90;;;;;;5023188;28;20033;-79
2020/12/31 07:46:43;;;;;;;1.53;1.33;;;2.30;99.90;;;;;;5026760;28;20408;-80
2020/12/31 07:49:12;;;;;;;1.00;1.00;;;2.30;99.90;;;;;;5018700;28;20052;-80
2020/12/31 07:51:45;;;;;;;1.67;1.38;;;2.40;99.90;;;;;;5033785;28;20096;-79
2020/12/31 07:54:11;;;;;;;21.23;1.92;;;2.30;99.90;;;;;;4881502;28;20030;-79
2020/12/31 07:56:38;;;;;;;2.78;1.70;;;2.30;99.90;;;;;;4882556;28;20664;-78
2020/12/31 07:59:04;;;;;;;0.43;0.43;;;2.40;99.90;;;;;;4868075;28;21541;-79
2020/12/31 08:01:30;;;;;;;2.50;2.13;;;2.40;99.90;;;;;;4871929;28;20818;-79
2020/12/31 08:04:11;;;;;;;2.25;1.75;;;2.50;99.90;;;;;;4865501;28;20075;-78
2020/12/31 08:06:37;;;;;;;1.35;1.10;;;2.50;99.90;;;;;;4877873;28;20022;-78
2020/12/31 08:09:03;;;;;;;5.20;1.33;;;2.50;99.90;;;;;;4868330;28;20060;-78
2020/12/31 08:11:29;;;;;;;0.80;0.77;;;2.50;99.90;;;;;;4871500;28;20022;-78
2020/12/31 08:14:04;;;;;;;1.20;0.90;;;2.50;99.90;;;;;;4869258;28;21655;-79
2020/12/31 08:16:30;;;;;;;1.77;1.65;;;2.60;99.90;;;;;;4868462;28;20263;-78
2020/12/31 08:18:57;;;;;;;1.27;1.08;;;2.60;99.90;;;;;;4869667;28;20446;-79
2020/12/31 08:21:24;;;;;;;4.47;2.03;;;2.60;99.90;;;;;;4869940;28;20429;-78
2020/12/31 08:24:02;;;;;;;0.80;0.80;;;2.70;99.90;;;;;;4881425;28;22122;-78
2020/12/31 08:26:28;;;;;;;1.90;1.80;;;2.70;99.90;;;;;;4873397;28;24587;-79
2020/12/31 08:28:55;;;;;;;1.85;1.02;;;2.70;99.90;;;;;;4873753;28;20026;-78
2020/12/31 08:31:24;;;;;;;5.65;2.50;;;2.70;99.90;;;;;;4869080;28;20133;-79
2020/12/31 08:34:00;;;;;;;2.13;1.90;;;2.70;99.90;;;;;;4863011;28;20026;-79
2020/12/31 08:36:26;;;;;;;2.10;1.80;;;2.70;99.90;;;;;;4883195;28;20045;-78
2020/12/31 08:38:56;;;;;;;2.03;1.85;;;2.70;99.90;;;;;;4870543;28;20046;-79
2020/12/31 08:41:22;;;;;;;1.00;1.00;;;2.70;99.90;;;;;;4883282;28;20054;-79
2020/12/31 08:43:52;;;;;;;2.67;2.03;;;2.60;99.90;;;;;;4871144;28;20130;-79
2020/12/31 08:46:20;;;;;;;3.00;2.45;;;2.70;99.90;;;;;;4864121;28;20117;-78
2020/12/31 08:48:54;;;;;;;3.60;2.55;;;2.80;99.90;;;;;;4887331;28;20026;-78
2020/12/31 08:51:20;;;;;;;3.40;2.38;;;2.80;99.90;;;;;;4887961;28;20561;-78
2020/12/31 08:53:50;;;;;;;3.00;2.03;;;2.80;99.90;;;;;;4885362;28;24994;-78
2020/12/31 08:56:21;;;;;;;1.55;1.45;;;2.80;99.90;;;;;;4906310;28;20460;-79
2020/12/31 08:58:47;;;;;;;8.13;4.57;;;2.80;99.90;;;;;;4887748;28;20037;-79
2020/12/31 09:01:26;;;;;;;3.15;1.92;;;2.80;99.90;;;;;;4885904;28;20659;-79
2020/12/31 09:04:06;;;;;;;4.55;4.15;;;2.80;99.90;;;;;;4891091;28;24497;-79
2020/12/31 09:06:32;;;;;;;3.72;3.10;;;2.80;99.90;;;;;;4889886;28;20018;-78
2020/12/31 09:08:57;;;;;;;5.68;3.47;;;2.80;99.90;;;;;;4887183;28;20036;-79
2020/12/31 09:11:25;;;;;;;15.10;7.18;;;2.70;99.90;;;;;;4903286;28;20675;-79
2020/12/31 09:13:51;;;;;;;19.13;9.05;;;2.70;99.90;;;;;;4893392;28;20029;-77
2020/12/31 09:16:17;;;;;;;7.40;5.13;;;2.70;99.90;;;;;;4865914;28;20759;-79
2020/12/31 09:18:44;;;;;;;2.30;2.03;;;2.80;99.90;;;;;;4864338;28;20038;-79
2020/12/31 09:21:10;;;;;;;4.55;3.90;;;2.70;99.90;;;;;;4879663;28;20018;-77
2020/12/31 09:23:37;;;;;;;18.60;6.38;;;2.80;99.90;;;;;;4874676;28;21970;-74
2020/12/31 09:26:04;;;;;;;;;;;2.80;99.90;;;;;;4865689;28;20029;-69
2020/12/31 09:28:30;;;;;;;19.70;9.48;;;2.80;99.90;;;;;;4862376;28;21811;-69
2020/12/31 09:30:57;;;;;;;35.60;8.20;;;2.90;99.90;;;;;;4864568;28;20181;-69
2020/12/31 09:33:24;;;;;;;18.98;9.05;;;2.90;99.90;;;;;;4863148;28;20034;-69
2020/12/31 09:35:50;;;;;;;10.13;8.02;;;2.90;99.90;;;;;;4862630;28;20030;-69
2020/12/31 09:38:17;;;;;;;31.08;15.85;;;2.90;99.90;;;;;;4863118;28;20052;-69
2020/12/31 09:40:43;;;;;;;;;;;3.00;99.90;;;;;;4917837;28;20064;-70
2020/12/31 09:43:11;;;;;;;4.10;3.78;;;2.90;99.90;;;;;;5029337;28;20373;-70
2020/12/31 09:45:38;;;;;;;3.80;3.50;;;2.80;99.90;;;;;;5024470;28;20030;-69
2020/12/31 09:48:05;;;;;;;10.18;4.15;;;2.80;99.90;;;;;;5029071;28;20049;-69
2020/12/31 09:50:31;;;;;;;17.25;6.68;;;2.80;99.90;;;;;;5024971;28;20320;-69
2020/12/31 09:52:58;;;;;;;22.13;5.30;;;2.90;99.90;;;;;;5030071;28;20021;-69
2020/12/31 09:55:24;;;;;;;5.13;3.03;;;2.90;99.90;;;;;;5022365;28;20025;-70
2020/12/31 09:57:51;;;;;;;6.72;3.63;;;3.00;99.90;;;;;;5041564;28;20045;-69
2020/12/31 10:00:17;;;;;;;26.90;7.93;;;3.10;99.90;;;;;;5028475;28;20112;-69
2020/12/31 10:02:43;;;;;;;6.10;4.07;;;3.20;99.90;;;;;;5026179;28;20041;-69
2020/12/31 10:05:09;;;;;;;3.40;2.60;;;3.40;99.90;;;;;;5029332;28;20041;-69
2020/12/31 10:07:34;;;;;;;7.07;4.90;;;3.50;99.90;;;;;;5023780;28;20428;-69
2020/12/31 10:10:00;;;;;;;7.37;4.43;;;3.70;99.90;;;;;;5018461;28;20038;-69
2020/12/31 10:12:26;;;;;;;19.73;5.57;;;3.80;99.90;;;;;;4971218;28;20033;-69
2020/12/31 10:14:53;;;;;;;12.00;6.65;;;4.00;99.90;;;;;;5019222;28;20026;-69
2020/12/31 10:17:18;;;;;;;7.28;3.55;;;4.20;99.90;;;;;;5026157;28;20028;-69
2020/12/31 10:19:44;;;;;;;7.85;4.28;;;4.30;99.90;;;;;;5018800;28;20302;-69
2020/12/31 10:22:10;;;;;;;13.13;9.02;;;4.40;99.90;;;;;;5015005;28;20316;-69
2020/12/31 10:24:36;;;;;;;10.30;6.93;;;4.40;99.90;;;;;;5029988;28;20037;-69
2020/12/31 10:27:03;;;;;;;17.73;12.57;;;4.40;99.90;;;;;;4999782;28;20040;-69
2020/12/31 10:29:29;;;;;;;9.05;6.45;;;4.50;99.90;;;;;;4886234;28;20034;-69
2020/12/31 10:31:55;;;;;;;5.90;3.77;;;4.50;99.90;;;;;;4885076;28;20034;-69
2020/12/31 10:34:23;;;;;;;2.72;2.53;;;4.40;99.90;;;;;;4895185;28;21099;-69
2020/12/31 10:36:53;;;;;;;8.48;3.53;;;4.50;99.90;;;;;;5024425;28;20428;-69
2020/12/31 10:39:19;;;;;;;2.60;2.40;;;4.40;99.90;;;;;;5023901;28;20119;-69
2020/12/31 10:41:46;;;;;;;9.02;3.20;;;4.40;99.90;;;;;;5015525;28;20022;-69
2020/12/31 10:44:13;;;;;;;5.18;2.25;;;4.50;99.90;;;;;;5042686;28;20029;-69
2020/12/31 10:46:39;;;;;;;3.55;3.25;;;4.50;99.90;;;;;;5019644;28;20051;-69
2020/12/31 10:49:05;;;;;;;19.33;3.85;;;4.70;99.90;;;;;;5029879;28;20098;-69
2020/12/31 10:51:35;;;;;;;2.97;2.70;;;4.80;99.90;;;;;;4986619;28;20029;-69
2020/12/31 10:54:03;;;;;;;2.15;1.73;;;4.80;99.90;;;;;;5015160;28;20516;-69
2020/12/31 10:56:29;;;;;;;3.10;2.67;;;4.80;99.90;;;;;;5019008;28;20033;-69
2020/12/31 10:58:54;;;;;;;4.22;3.15;;;4.80;99.90;;;;;;5021404;28;20026;-69
2020/12/31 11:01:20;;;;;;;4.40;2.23;;;4.70;99.90;;;;;;5026516;28;20025;-69
2020/12/31 11:03:46;;;;;;;10.47;3.53;;;4.80;99.90;;;;;;5024876;28;20037;-69
2020/12/31 11:06:24;;;;;;;3.73;2.57;;;4.90;99.90;;;;;;5026310;28;20048;-70
2020/12/31 11:08:50;;;;;;;5.53;3.17;;;4.80;99.90;;;;;;5048488;28;20036;-70
2020/12/31 11:11:24;;;;;;;4.53;2.70;;;4.70;99.90;;;;;;5025154;28;20034;-69
2020/12/31 11:13:51;;;;;;;4.85;2.88;;;4.60;99.90;;;;;;5030724;28;20294;-69
2020/12/31 11:16:16;;;;;;;4.40;3.35;;;4.70;99.90;;;;;;5023181;28;20053;-70
2020/12/31 11:18:43;;;;;;;4.30;3.87;;;4.70;99.90;;;;;;4974381;28;20360;-70
2020/12/31 11:21:09;;;;;;;6.40;2.85;;;4.70;99.90;;;;;;5032801;28;20065;-69
2020/12/31 11:23:35;;;;;;;1.17;0.98;;;4.60;99.90;;;;;;5031763;28;20419;-70
2020/12/31 11:26:02;;;;;;;2.85;2.65;;;4.60;99.90;;;;;;5028711;28;20021;-69
2020/12/31 11:28:28;;;;;;;3.63;2.35;;;4.60;99.90;;;;;;5028422;28;20040;-69
2020/12/31 11:30:54;;;;;;;3.28;2.88;;;4.60;99.90;;;;;;5015172;28;20034;-69
2020/12/31 11:33:19;;;;;;;5.50;3.00;;;4.50;99.90;;;;;;5024381;28;20040;-70
2020/12/31 11:35:45;;;;;;;5.25;3.40;;;4.50;99.90;;;;;;5027343;28;20383;-69
2020/12/31 11:38:11;;;;;;;4.68;1.73;;;4.50;99.90;;;;;;5025088;28;20080;-70
2020/12/31 11:40:37;;;;;;;3.50;2.60;;;4.50;99.90;;;;;;5041588;28;20029;-69
2020/12/31 11:43:03;;;;;;;5.70;2.35;;;4.50;99.90;;;;;;5014978;28;20443;-70
2020/12/31 11:45:28;;;;;;;6.38;3.28;;;4.50;99.90;;;;;;5018848;28;20032;-69
2020/12/31 11:47:54;;;;;;;4.47;3.47;;;4.60;99.90;;;;;;5012355;28;20034;-69
2020/12/31 11:50:20;;;;;;;2.72;2.17;;;4.80;99.90;;;;;;5009031;28;20053;-69
2020/12/31 11:52:45;;;;;;;3.07;2.63;;;4.90;99.90;;;;;;4964637;28;20891;-69
2020/12/31 11:55:12;;;;;;;3.63;3.33;;;4.90;99.90;;;;;;5003858;28;20372;-69
2020/12/31 11:57:38;;;;;;;4.22;2.58;;;4.80;99.90;;;;;;5008557;28;20369;-69
2020/12/31 12:00:04;;;;;;;2.97;2.70;;;4.90;99.90;;;;;;5020318;28;20039;-70
2020/12/31 12:02:30;;;;;;;3.00;2.10;;;4.80;99.90;;;;;;5013757;28;20332;-69
2020/12/31 12:04:55;;;;;;;3.53;2.63;;;4.90;99.90;;;;;;5030075;28;20034;-69
2020/12/31 12:07:21;;;;;;;3.63;3.33;;;4.90;99.90;;;;;;5018434;28;20034;-69
2020/12/31 12:09:47;;;;;;;1.45;1.35;;;5.00;99.90;;;;;;5005556;28;20025;-70
2020/12/31 12:12:12;;;;;;;5.85;2.53;;;5.10;99.90;;;;;;5006522;28;20565;-70
2020/12/31 12:14:38;;;;;;;6.03;2.90;;;5.10;99.90;;;;;;5008564;28;20030;-69
2020/12/31 12:17:04;;;;;;;7.23;4.23;;;5.30;99.90;;;;;;5007884;28;20030;-69
2020/12/31 12:19:30;;;;;;;8.87;4.43;;;5.40;99.90;;;;;;5002920;28;20030;-69
2020/12/31 12:21:59;;;;;;;3.58;2.90;;;5.60;99.90;;;;;;5014084;28;20346;-70
2020/12/31 12:24:26;;;;;;;3.15;2.53;;;5.60;99.90;;;;;;4968084;28;21324;-69
2020/12/31 12:26:51;;;;;;;7.07;3.22;;;5.70;99.90;;;;;;5007290;28;20021;-69
2020/12/31 12:29:17;;;;;;;5.10;2.42;;;5.60;99.90;;;;;;5011585;28;20336;-69
2020/12/31 12:31:43;;;;;;;1.37;1.33;;;5.50;99.90;;;;;;4917716;28;20603;-69
2020/12/31 12:34:09;;;;;;;2.40;2.13;;;5.60;99.90;;;;;;4853698;28;20037;-69
2020/12/31 12:36:35;;;;;;;4.95;2.17;;;5.50;99.90;;;;;;4871961;28;20037;-69
2020/12/31 12:39:02;;;;;;;3.35;1.92;;;5.60;99.90;;;;;;4857803;28;20932;-69
2020/12/31 12:41:28;;;;;;;;;;;5.60;99.90;;;;;;4856742;28;20413;-69
2020/12/31 12:43:54;;;;;;;2.33;2.00;;;5.70;99.90;;;;;;4867941;28;19994;-69
2020/12/31 12:46:20;;;;;;;2.87;2.17;;;5.80;99.90;;;;;;4853665;28;20041;-69
2020/12/31 12:48:46;;;;;;;1.98;1.88;;;5.60;99.90;;;;;;4851819;28;24647;-69
2020/12/31 12:51:11;;;;;;;2.40;2.23;;;5.50;99.90;;;;;;4868249;28;21622;-69
2020/12/31 12:53:38;;;;;;;1.70;1.60;;;5.40;99.90;;;;;;4854412;28;20057;-69
2020/12/31 12:56:04;;;;;;;3.53;2.33;;;5.40;99.90;;;;;;4855063;28;20664;-69
2020/12/31 12:58:31;;;;;;;2.00;1.73;;;5.40;99.90;;;;;;4854714;28;20104;-69
2020/12/31 13:00:57;;;;;;;8.20;2.83;;;5.40;99.90;;;;;;4856881;28;21270;-69
2020/12/31 13:03:23;;;;;;;5.82;2.80;;;5.50;99.90;;;;;;4852267;28;20022;-69